sensor_id;sensor_type;location;lat;lon;timestamp;P1;durP1;ratioP1;P2;durP2;ratioP2
12445;SDS011;6287;50.984;7.022;2022-10-16T00:01:51;1.50;;;1.40;;
12445;SDS011;6287;50.984;7.022;2022-10-16T00:04:19;1.87;;;1.67;;
12445;SDS011;6287;50.984;7.022;2022-10-16T00:06:47;2.40;;;1.40;;
12445;SDS011;6287;50.984;7.022;2022-10-16T00:09:15;3.57;;;1.60;;
12445;SDS011;6287;50.984;7.022;2022-10-16T00:11:41;1.40;;;1.30;;
12445;SDS011;6287;50.984;7.022;2022-10-16T00:14:10;1.93;;;1.40;;
12445;SDS011;6287;50.984;7.022;2022-10-16T00:16:38;5.97;;;1.70;;
12445;SDS011;6287;50.984;7.022;2022-10-16T00:19:06;2.43;;;1.60;;
12445;SDS011;6287;50.984;7.022;2022-10-16T00:21:32;1.50;;;1.40;;
12445;SDS011;6287;50.984;7.022;2022-10-16T00:23:59;1.50;;;1.40;;
12445;SDS011;6287;50.984;7.022;2022-10-16T00:26:32;1.30;;;1.20;;
12445;SDS011;6287;50.984;7.022;2022-10-16T00:28:58;2.33;;;1.40;;
12445;SDS011;6287;50.984;7.022;2022-10-16T00:31:24;3.97;;;1.70;;
12445;SDS011;6287;50.984;7.022;2022-10-16T00:33:55;2.70;;;1.10;;
12445;SDS011;6287;50.984;7.022;2022-10-16T00:36:23;1.83;;;1.57;;
12445;SDS011;6287;50.984;7.022;2022-10-16T00:38:53;1.50;;;1.40;;
12445;SDS011;6287;50.984;7.022;2022-10-16T00:41:21;1.40;;;1.30;;
12445;SDS011;6287;50.984;7.022;2022-10-16T00:46:25;1.50;;;1.40;;
12445;SDS011;6287;50.984;7.022;2022-10-16T00:49:10;1.40;;;1.10;;
12445;SDS011;6287;50.984;7.022;2022-10-16T00:51:38;1.30;;;1.20;;
12445;SDS011;6287;50.984;7.022;2022-10-16T00:54:13;1.40;;;1.30;;
12445;SDS011;6287;50.984;7.022;2022-10-16T00:56:44;1.00;;;1.00;;
12445;SDS011;6287;50.984;7.022;2022-10-16T00:59:14;1.37;;;1.20;;
12445;SDS011;6287;50.984;7.022;2022-10-16T01:01:51;1.40;;;1.30;;
12445;SDS011;6287;50.984;7.022;2022-10-16T01:04:21;3.23;;;1.50;;
12445;SDS011;6287;50.984;7.022;2022-10-16T01:06:54;1.40;;;1.30;;
12445;SDS011;6287;50.984;7.022;2022-10-16T01:12:15;1.40;;;1.30;;
12445;SDS011;6287;50.984;7.022;2022-10-16T01:15:37;1.90;;;1.30;;
12445;SDS011;6287;50.984;7.022;2022-10-16T01:20:39;1.20;;;1.10;;
12445;SDS011;6287;50.984;7.022;2022-10-16T01:26:40;1.47;;;1.20;;
12445;SDS011;6287;50.984;7.022;2022-10-16T01:29:38;1.17;;;1.10;;
12445;SDS011;6287;50.984;7.022;2022-10-16T01:35:04;1.23;;;1.20;;
12445;SDS011;6287;50.984;7.022;2022-10-16T01:37:43;1.63;;;1.40;;
12445;SDS011;6287;50.984;7.022;2022-10-16T01:40:19;1.27;;;1.17;;
12445;SDS011;6287;50.984;7.022;2022-10-16T01:43:01;1.90;;;1.20;;
12445;SDS011;6287;50.984;7.022;2022-10-16T01:45:31;1.40;;;1.30;;
12445;SDS011;6287;50.984;7.022;2022-10-16T01:48:00;1.37;;;1.33;;
12445;SDS011;6287;50.984;7.022;2022-10-16T01:50:31;1.30;;;1.20;;
12445;SDS011;6287;50.984;7.022;2022-10-16T01:53:00;1.37;;;1.27;;
12445;SDS011;6287;50.984;7.022;2022-10-16T01:55:30;1.77;;;1.30;;
12445;SDS011;6287;50.984;7.022;2022-10-16T01:58:00;1.93;;;1.40;;
12445;SDS011;6287;50.984;7.022;2022-10-16T02:00:28;1.50;;;1.40;;
12445;SDS011;6287;50.984;7.022;2022-10-16T02:02:58;1.67;;;1.20;;
12445;SDS011;6287;50.984;7.022;2022-10-16T02:05:34;1.57;;;1.43;;
12445;SDS011;6287;50.984;7.022;2022-10-16T02:08:06;3.20;;;1.37;;
12445;SDS011;6287;50.984;7.022;2022-10-16T02:10:31;2.57;;;1.60;;
12445;SDS011;6287;50.984;7.022;2022-10-16T02:16:02;1.70;;;1.60;;
12445;SDS011;6287;50.984;7.022;2022-10-16T02:18:28;1.80;;;1.50;;
12445;SDS011;6287;50.984;7.022;2022-10-16T02:26:37;1.40;;;1.30;;
12445;SDS011;6287;50.984;7.022;2022-10-16T02:29:22;1.47;;;1.37;;
12445;SDS011;6287;50.984;7.022;2022-10-16T02:31:52;0.90;;;0.90;;
12445;SDS011;6287;50.984;7.022;2022-10-16T02:34:21;1.10;;;1.10;;
12445;SDS011;6287;50.984;7.022;2022-10-16T02:36:52;1.10;;;1.00;;
12445;SDS011;6287;50.984;7.022;2022-10-16T02:39:22;1.10;;;1.10;;
12445;SDS011;6287;50.984;7.022;2022-10-16T02:41:48;1.63;;;1.10;;
12445;SDS011;6287;50.984;7.022;2022-10-16T02:44:16;4.30;;;1.30;;
12445;SDS011;6287;50.984;7.022;2022-10-16T02:46:44;1.50;;;1.40;;
12445;SDS011;6287;50.984;7.022;2022-10-16T02:49:12;1.80;;;1.13;;
12445;SDS011;6287;50.984;7.022;2022-10-16T02:51:40;2.50;;;1.20;;
12445;SDS011;6287;50.984;7.022;2022-10-16T02:54:08;1.40;;;1.30;;
12445;SDS011;6287;50.984;7.022;2022-10-16T02:56:34;1.17;;;1.07;;
12445;SDS011;6287;50.984;7.022;2022-10-16T02:59:02;1.10;;;1.10;;
12445;SDS011;6287;50.984;7.022;2022-10-16T03:01:28;1.80;;;1.20;;
12445;SDS011;6287;50.984;7.022;2022-10-16T03:03:53;1.73;;;1.00;;
12445;SDS011;6287;50.984;7.022;2022-10-16T03:06:19;2.60;;;1.20;;
12445;SDS011;6287;50.984;7.022;2022-10-16T03:08:44;2.20;;;1.20;;
12445;SDS011;6287;50.984;7.022;2022-10-16T03:11:12;1.00;;;1.00;;
12445;SDS011;6287;50.984;7.022;2022-10-16T03:13:38;1.63;;;1.30;;
12445;SDS011;6287;50.984;7.022;2022-10-16T03:16:06;1.10;;;1.10;;
12445;SDS011;6287;50.984;7.022;2022-10-16T03:18:32;2.30;;;1.00;;
12445;SDS011;6287;50.984;7.022;2022-10-16T03:20:57;1.00;;;1.00;;
12445;SDS011;6287;50.984;7.022;2022-10-16T03:23:25;0.90;;;0.90;;
12445;SDS011;6287;50.984;7.022;2022-10-16T03:25:53;1.73;;;1.07;;
12445;SDS011;6287;50.984;7.022;2022-10-16T03:28:19;1.07;;;0.97;;
12445;SDS011;6287;50.984;7.022;2022-10-16T03:30:47;1.03;;;1.00;;
12445;SDS011;6287;50.984;7.022;2022-10-16T03:33:15;1.43;;;1.20;;
12445;SDS011;6287;50.984;7.022;2022-10-16T03:35:43;1.53;;;1.20;;
12445;SDS011;6287;50.984;7.022;2022-10-16T03:38:17;1.60;;;1.50;;
12445;SDS011;6287;50.984;7.022;2022-10-16T03:40:42;2.50;;;1.30;;
12445;SDS011;6287;50.984;7.022;2022-10-16T03:43:08;2.33;;;1.57;;
12445;SDS011;6287;50.984;7.022;2022-10-16T03:45:33;1.73;;;1.17;;
12445;SDS011;6287;50.984;7.022;2022-10-16T03:48:01;1.40;;;1.30;;
12445;SDS011;6287;50.984;7.022;2022-10-16T03:50:31;1.30;;;1.20;;
12445;SDS011;6287;50.984;7.022;2022-10-16T03:52:58;1.40;;;1.30;;
12445;SDS011;6287;50.984;7.022;2022-10-16T03:55:24;1.53;;;1.13;;
12445;SDS011;6287;50.984;7.022;2022-10-16T03:57:49;1.27;;;1.17;;
12445;SDS011;6287;50.984;7.022;2022-10-16T04:00:15;1.33;;;1.23;;
12445;SDS011;6287;50.984;7.022;2022-10-16T04:02:43;1.50;;;1.40;;
12445;SDS011;6287;50.984;7.022;2022-10-16T04:05:13;1.87;;;1.40;;
12445;SDS011;6287;50.984;7.022;2022-10-16T04:07:39;3.63;;;1.70;;
12445;SDS011;6287;50.984;7.022;2022-10-16T04:10:07;1.10;;;1.10;;
12445;SDS011;6287;50.984;7.022;2022-10-16T04:12:37;1.17;;;1.17;;
12445;SDS011;6287;50.984;7.022;2022-10-16T04:15:03;1.60;;;1.07;;
12445;SDS011;6287;50.984;7.022;2022-10-16T04:17:31;2.47;;;1.07;;
12445;SDS011;6287;50.984;7.022;2022-10-16T04:19:56;1.13;;;1.03;;
12445;SDS011;6287;50.984;7.022;2022-10-16T04:22:22;1.03;;;1.03;;
12445;SDS011;6287;50.984;7.022;2022-10-16T04:24:47;0.80;;;0.80;;
12445;SDS011;6287;50.984;7.022;2022-10-16T04:27:16;0.87;;;0.87;;
12445;SDS011;6287;50.984;7.022;2022-10-16T04:29:41;0.90;;;0.90;;
12445;SDS011;6287;50.984;7.022;2022-10-16T04:32:09;0.83;;;0.83;;
12445;SDS011;6287;50.984;7.022;2022-10-16T04:34:34;0.90;;;0.90;;
12445;SDS011;6287;50.984;7.022;2022-10-16T04:37:00;0.90;;;0.90;;
12445;SDS011;6287;50.984;7.022;2022-10-16T04:39:26;1.00;;;0.90;;
12445;SDS011;6287;50.984;7.022;2022-10-16T04:41:52;0.70;;;0.70;;
12445;SDS011;6287;50.984;7.022;2022-10-16T04:44:17;0.93;;;0.80;;
12445;SDS011;6287;50.984;7.022;2022-10-16T04:46:43;1.07;;;0.97;;
12445;SDS011;6287;50.984;7.022;2022-10-16T04:49:10;0.70;;;0.70;;
12445;SDS011;6287;50.984;7.022;2022-10-16T04:51:38;0.80;;;0.80;;
12445;SDS011;6287;50.984;7.022;2022-10-16T04:54:04;1.10;;;1.00;;
12445;SDS011;6287;50.984;7.022;2022-10-16T04:56:32;0.73;;;0.73;;
12445;SDS011;6287;50.984;7.022;2022-10-16T04:59:05;0.80;;;0.80;;
12445;SDS011;6287;50.984;7.022;2022-10-16T05:01:35;0.80;;;0.80;;
12445;SDS011;6287;50.984;7.022;2022-10-16T05:04:00;0.90;;;0.90;;
12445;SDS011;6287;50.984;7.022;2022-10-16T05:06:26;0.73;;;0.73;;
12445;SDS011;6287;50.984;7.022;2022-10-16T05:08:54;0.97;;;0.87;;
12445;SDS011;6287;50.984;7.022;2022-10-16T05:11:20;0.70;;;0.70;;
12445;SDS011;6287;50.984;7.022;2022-10-16T05:13:48;0.90;;;0.90;;
12445;SDS011;6287;50.984;7.022;2022-10-16T05:16:18;1.00;;;1.00;;
12445;SDS011;6287;50.984;7.022;2022-10-16T05:18:46;1.13;;;0.83;;
12445;SDS011;6287;50.984;7.022;2022-10-16T05:21:11;0.90;;;0.80;;
12445;SDS011;6287;50.984;7.022;2022-10-16T05:23:37;1.37;;;0.80;;
12445;SDS011;6287;50.984;7.022;2022-10-16T05:26:02;0.93;;;0.90;;
12445;SDS011;6287;50.984;7.022;2022-10-16T05:28:29;2.00;;;0.80;;
12445;SDS011;6287;50.984;7.022;2022-10-16T05:30:57;0.87;;;0.83;;
12445;SDS011;6287;50.984;7.022;2022-10-16T05:33:25;1.77;;;1.00;;
12445;SDS011;6287;50.984;7.022;2022-10-16T05:35:54;0.90;;;0.90;;
12445;SDS011;6287;50.984;7.022;2022-10-16T05:38:21;0.90;;;0.90;;
12445;SDS011;6287;50.984;7.022;2022-10-16T05:40:51;0.90;;;0.90;;
12445;SDS011;6287;50.984;7.022;2022-10-16T05:43:17;1.00;;;1.00;;
12445;SDS011;6287;50.984;7.022;2022-10-16T05:46:03;1.90;;;0.90;;
12445;SDS011;6287;50.984;7.022;2022-10-16T05:48:30;0.80;;;0.80;;
12445;SDS011;6287;50.984;7.022;2022-10-16T05:50:57;0.80;;;0.80;;
12445;SDS011;6287;50.984;7.022;2022-10-16T05:53:23;1.00;;;1.00;;
12445;SDS011;6287;50.984;7.022;2022-10-16T05:55:53;1.00;;;0.90;;
12445;SDS011;6287;50.984;7.022;2022-10-16T05:58:20;0.90;;;0.90;;
12445;SDS011;6287;50.984;7.022;2022-10-16T06:00:55;0.60;;;0.60;;
12445;SDS011;6287;50.984;7.022;2022-10-16T06:03:25;0.80;;;0.80;;
12445;SDS011;6287;50.984;7.022;2022-10-16T06:05:51;1.00;;;1.00;;
12445;SDS011;6287;50.984;7.022;2022-10-16T06:08:20;1.87;;;1.00;;
12445;SDS011;6287;50.984;7.022;2022-10-16T06:10:47;1.70;;;1.43;;
12445;SDS011;6287;50.984;7.022;2022-10-16T06:13:16;1.27;;;0.97;;
12445;SDS011;6287;50.984;7.022;2022-10-16T06:15:44;1.50;;;0.80;;
12445;SDS011;6287;50.984;7.022;2022-10-16T06:18:10;1.10;;;1.00;;
12445;SDS011;6287;50.984;7.022;2022-10-16T06:20:37;1.20;;;1.10;;
12445;SDS011;6287;50.984;7.022;2022-10-16T06:23:05;1.53;;;1.37;;
12445;SDS011;6287;50.984;7.022;2022-10-16T06:25:31;1.47;;;0.80;;
12445;SDS011;6287;50.984;7.022;2022-10-16T06:27:57;1.00;;;0.90;;
12445;SDS011;6287;50.984;7.022;2022-10-16T06:30:22;1.03;;;1.00;;
12445;SDS011;6287;50.984;7.022;2022-10-16T06:32:50;2.83;;;1.00;;
12445;SDS011;6287;50.984;7.022;2022-10-16T06:35:19;1.10;;;1.10;;
12445;SDS011;6287;50.984;7.022;2022-10-16T06:37:49;1.40;;;1.30;;
12445;SDS011;6287;50.984;7.022;2022-10-16T06:40:17;1.40;;;1.30;;
12445;SDS011;6287;50.984;7.022;2022-10-16T06:42:42;4.53;;;1.30;;
12445;SDS011;6287;50.984;7.022;2022-10-16T06:45:08;2.03;;;1.80;;
12445;SDS011;6287;50.984;7.022;2022-10-16T06:47:34;3.90;;;2.47;;
12445;SDS011;6287;50.984;7.022;2022-10-16T06:50:00;4.73;;;2.20;;
12445;SDS011;6287;50.984;7.022;2022-10-16T06:52:28;2.27;;;2.07;;
12445;SDS011;6287;50.984;7.022;2022-10-16T06:54:56;2.23;;;2.00;;
12445;SDS011;6287;50.984;7.022;2022-10-16T06:57:21;2.23;;;2.03;;
12445;SDS011;6287;50.984;7.022;2022-10-16T06:59:47;2.20;;;1.70;;
12445;SDS011;6287;50.984;7.022;2022-10-16T07:02:15;1.50;;;1.33;;
12445;SDS011;6287;50.984;7.022;2022-10-16T07:04:42;1.87;;;1.70;;
12445;SDS011;6287;50.984;7.022;2022-10-16T07:07:08;1.60;;;1.50;;
12445;SDS011;6287;50.984;7.022;2022-10-16T07:09:34;2.40;;;1.40;;
12445;SDS011;6287;50.984;7.022;2022-10-16T07:12:04;1.90;;;1.30;;
12445;SDS011;6287;50.984;7.022;2022-10-16T07:14:30;1.30;;;1.20;;
12445;SDS011;6287;50.984;7.022;2022-10-16T07:16:55;1.23;;;1.23;;
12445;SDS011;6287;50.984;7.022;2022-10-16T07:19:23;1.70;;;1.17;;
12445;SDS011;6287;50.984;7.022;2022-10-16T07:21:52;1.33;;;1.23;;
12445;SDS011;6287;50.984;7.022;2022-10-16T07:24:18;1.97;;;1.43;;
12445;SDS011;6287;50.984;7.022;2022-10-16T07:26:44;1.50;;;1.40;;
12445;SDS011;6287;50.984;7.022;2022-10-16T07:29:11;1.70;;;1.60;;
12445;SDS011;6287;50.984;7.022;2022-10-16T07:31:47;1.37;;;1.30;;
12445;SDS011;6287;50.984;7.022;2022-10-16T07:34:18;1.47;;;1.43;;
12445;SDS011;6287;50.984;7.022;2022-10-16T07:36:49;2.17;;;1.30;;
12445;SDS011;6287;50.984;7.022;2022-10-16T07:39:17;1.70;;;1.60;;
12445;SDS011;6287;50.984;7.022;2022-10-16T07:41:43;1.20;;;1.20;;
12445;SDS011;6287;50.984;7.022;2022-10-16T07:44:11;1.40;;;1.30;;
12445;SDS011;6287;50.984;7.022;2022-10-16T07:46:37;2.90;;;1.60;;
12445;SDS011;6287;50.984;7.022;2022-10-16T07:49:03;3.73;;;1.60;;
12445;SDS011;6287;50.984;7.022;2022-10-16T07:51:28;1.63;;;1.40;;
12445;SDS011;6287;50.984;7.022;2022-10-16T07:53:57;3.53;;;1.47;;
12445;SDS011;6287;50.984;7.022;2022-10-16T07:56:22;1.20;;;1.20;;
12445;SDS011;6287;50.984;7.022;2022-10-16T07:58:49;2.70;;;1.30;;
12445;SDS011;6287;50.984;7.022;2022-10-16T08:01:20;1.50;;;1.40;;
12445;SDS011;6287;50.984;7.022;2022-10-16T08:03:49;1.50;;;1.40;;
12445;SDS011;6287;50.984;7.022;2022-10-16T08:06:16;1.40;;;1.40;;
12445;SDS011;6287;50.984;7.022;2022-10-16T08:08:45;2.43;;;1.57;;
12445;SDS011;6287;50.984;7.022;2022-10-16T08:11:11;1.10;;;1.10;;
12445;SDS011;6287;50.984;7.022;2022-10-16T08:13:42;1.23;;;1.13;;
12445;SDS011;6287;50.984;7.022;2022-10-16T08:16:08;1.77;;;1.20;;
12445;SDS011;6287;50.984;7.022;2022-10-16T08:18:35;3.70;;;1.60;;
12445;SDS011;6287;50.984;7.022;2022-10-16T08:21:02;1.20;;;1.17;;
12445;SDS011;6287;50.984;7.022;2022-10-16T08:23:28;1.30;;;1.20;;
12445;SDS011;6287;50.984;7.022;2022-10-16T08:26:01;1.30;;;1.20;;
12445;SDS011;6287;50.984;7.022;2022-10-16T08:28:31;1.10;;;1.10;;
12445;SDS011;6287;50.984;7.022;2022-10-16T08:31:09;2.33;;;1.10;;
12445;SDS011;6287;50.984;7.022;2022-10-16T08:33:38;1.23;;;0.95;;
12445;SDS011;6287;50.984;7.022;2022-10-16T08:36:06;1.00;;;0.90;;
12445;SDS011;6287;50.984;7.022;2022-10-16T08:38:33;1.33;;;1.20;;
12445;SDS011;6287;50.984;7.022;2022-10-16T08:41:02;0.83;;;0.80;;
12445;SDS011;6287;50.984;7.022;2022-10-16T08:46:54;0.95;;;0.95;;
12445;SDS011;6287;50.984;7.022;2022-10-16T08:49:28;0.57;;;0.57;;
12445;SDS011;6287;50.984;7.022;2022-10-16T08:51:57;0.70;;;0.70;;
12445;SDS011;6287;50.984;7.022;2022-10-16T08:54:31;0.60;;;0.60;;
12445;SDS011;6287;50.984;7.022;2022-10-16T08:57:12;3.03;;;0.60;;
12445;SDS011;6287;50.984;7.022;2022-10-16T08:59:51;0.73;;;0.73;;
12445;SDS011;6287;50.984;7.022;2022-10-16T09:15:43;0.40;;;0.40;;
12445;SDS011;6287;50.984;7.022;2022-10-16T09:21:21;0.90;;;0.45;;
12445;SDS011;6287;50.984;7.022;2022-10-16T09:23:54;0.75;;;0.57;;
12445;SDS011;6287;50.984;7.022;2022-10-16T09:26:29;1.88;;;0.50;;
12445;SDS011;6287;50.984;7.022;2022-10-16T09:28:57;1.42;;;0.40;;
12445;SDS011;6287;50.984;7.022;2022-10-16T09:31:28;1.08;;;0.43;;
12445;SDS011;6287;50.984;7.022;2022-10-16T09:33:54;0.40;;;0.40;;
12445;SDS011;6287;50.984;7.022;2022-10-16T09:36:26;0.40;;;0.40;;
12445;SDS011;6287;50.984;7.022;2022-10-16T09:39:04;0.40;;;0.40;;
12445;SDS011;6287;50.984;7.022;2022-10-16T09:41:40;0.40;;;0.40;;
12445;SDS011;6287;50.984;7.022;2022-10-16T09:44:29;0.55;;;0.40;;
12445;SDS011;6287;50.984;7.022;2022-10-16T09:47:02;0.20;;;0.20;;
12445;SDS011;6287;50.984;7.022;2022-10-16T09:49:30;0.40;;;0.40;;
12445;SDS011;6287;50.984;7.022;2022-10-16T09:52:03;0.82;;;0.30;;
12445;SDS011;6287;50.984;7.022;2022-10-16T09:57:23;1.65;;;0.40;;
12445;SDS011;6287;50.984;7.022;2022-10-16T10:02:31;0.38;;;0.38;;
12445;SDS011;6287;50.984;7.022;2022-10-16T10:04:59;0.40;;;0.40;;
12445;SDS011;6287;50.984;7.022;2022-10-16T10:07:28;0.30;;;0.30;;
12445;SDS011;6287;50.984;7.022;2022-10-16T10:09:59;0.20;;;0.20;;
12445;SDS011;6287;50.984;7.022;2022-10-16T10:12:28;0.32;;;0.30;;
12445;SDS011;6287;50.984;7.022;2022-10-16T10:15:04;0.90;;;0.50;;
12445;SDS011;6287;50.984;7.022;2022-10-16T10:17:56;0.47;;;0.40;;
12445;SDS011;6287;50.984;7.022;2022-10-16T10:22:53;0.50;;;0.47;;
12445;SDS011;6287;50.984;7.022;2022-10-16T10:36:36;0.28;;;0.20;;
12445;SDS011;6287;50.984;7.022;2022-10-16T10:39:16;0.98;;;0.20;;
12445;SDS011;6287;50.984;7.022;2022-10-16T10:52:31;0.45;;;0.40;;
12445;SDS011;6287;50.984;7.022;2022-10-16T10:55:03;3.65;;;0.40;;
12445;SDS011;6287;50.984;7.022;2022-10-16T11:00:21;0.30;;;0.30;;
12445;SDS011;6287;50.984;7.022;2022-10-16T11:02:53;2.90;;;0.40;;
12445;SDS011;6287;50.984;7.022;2022-10-16T11:08:07;0.20;;;0.20;;
12445;SDS011;6287;50.984;7.022;2022-10-16T11:10:44;0.38;;;0.20;;
12445;SDS011;6287;50.984;7.022;2022-10-16T11:13:19;0.20;;;0.20;;
12445;SDS011;6287;50.984;7.022;2022-10-16T11:15:47;0.30;;;0.20;;
12445;SDS011;6287;50.984;7.022;2022-10-16T11:18:21;0.80;;;0.80;;
12445;SDS011;6287;50.984;7.022;2022-10-16T11:20:53;0.30;;;0.28;;
12445;SDS011;6287;50.984;7.022;2022-10-16T11:23:29;0.55;;;0.30;;
12445;SDS011;6287;50.984;7.022;2022-10-16T11:26:01;1.60;;;0.28;;
12445;SDS011;6287;50.984;7.022;2022-10-16T11:28:35;0.43;;;0.35;;
12445;SDS011;6287;50.984;7.022;2022-10-16T11:31:20;0.40;;;0.30;;
12445;SDS011;6287;50.984;7.022;2022-10-16T11:34:01;0.28;;;0.17;;
12445;SDS011;6287;50.984;7.022;2022-10-16T11:41:53;0.38;;;0.20;;
12445;SDS011;6287;50.984;7.022;2022-10-16T11:49:45;0.20;;;0.20;;
12445;SDS011;6287;50.984;7.022;2022-10-16T11:54:59;0.20;;;0.20;;
12445;SDS011;6287;50.984;7.022;2022-10-16T11:57:40;0.40;;;0.40;;
12445;SDS011;6287;50.984;7.022;2022-10-16T12:00:30;1.42;;;0.50;;
12445;SDS011;6287;50.984;7.022;2022-10-16T12:08:48;0.40;;;0.20;;
12445;SDS011;6287;50.984;7.022;2022-10-16T12:14:04;0.30;;;0.30;;
12445;SDS011;6287;50.984;7.022;2022-10-16T12:16:37;0.32;;;0.32;;
12445;SDS011;6287;50.984;7.022;2022-10-16T12:19:15;0.30;;;0.30;;
12445;SDS011;6287;50.984;7.022;2022-10-16T12:21:45;0.80;;;0.20;;
12445;SDS011;6287;50.984;7.022;2022-10-16T12:24:21;0.70;;;0.30;;
12445;SDS011;6287;50.984;7.022;2022-10-16T12:26:50;0.75;;;0.40;;
12445;SDS011;6287;50.984;7.022;2022-10-16T12:29:28;1.95;;;0.57;;
12445;SDS011;6287;50.984;7.022;2022-10-16T12:32:19;1.50;;;0.43;;
12445;SDS011;6287;50.984;7.022;2022-10-16T12:34:56;0.60;;;0.13;;
12445;SDS011;6287;50.984;7.022;2022-10-16T12:40:22;0.75;;;0.30;;
12445;SDS011;6287;50.984;7.022;2022-10-16T12:42:57;0.20;;;0.20;;
12445;SDS011;6287;50.984;7.022;2022-10-16T12:45:37;0.30;;;0.30;;
12445;SDS011;6287;50.984;7.022;2022-10-16T12:48:17;1.08;;;0.30;;
12445;SDS011;6287;50.984;7.022;2022-10-16T12:50:47;0.28;;;0.28;;
12445;SDS011;6287;50.984;7.022;2022-10-16T12:53:23;0.35;;;0.28;;
12445;SDS011;6287;50.984;7.022;2022-10-16T13:01:42;0.65;;;0.40;;
12445;SDS011;6287;50.984;7.022;2022-10-16T13:04:49;1.02;;;0.30;;
12445;SDS011;6287;50.984;7.022;2022-10-16T13:13:41;1.20;;;0.43;;
12445;SDS011;6287;50.984;7.022;2022-10-16T13:27:24;0.43;;;0.20;;
12445;SDS011;6287;50.984;7.022;2022-10-16T13:30:30;0.30;;;0.30;;
12445;SDS011;6287;50.984;7.022;2022-10-16T13:32:54;0.32;;;0.32;;
12445;SDS011;6287;50.984;7.022;2022-10-16T13:35:33;0.93;;;0.38;;
12445;SDS011;6287;50.984;7.022;2022-10-16T13:38:08;0.47;;;0.25;;
12445;SDS011;6287;50.984;7.022;2022-10-16T13:40:56;0.20;;;0.20;;
12445;SDS011;6287;50.984;7.022;2022-10-16T13:43:36;0.70;;;0.30;;
12445;SDS011;6287;50.984;7.022;2022-10-16T13:46:12;0.73;;;0.30;;
12445;SDS011;6287;50.984;7.022;2022-10-16T13:48:56;1.15;;;0.25;;
12445;SDS011;6287;50.984;7.022;2022-10-16T13:51:25;0.30;;;0.30;;
12445;SDS011;6287;50.984;7.022;2022-10-16T13:53:51;2.42;;;0.65;;
12445;SDS011;6287;50.984;7.022;2022-10-16T13:56:18;0.40;;;0.40;;
12445;SDS011;6287;50.984;7.022;2022-10-16T13:58:45;0.32;;;0.32;;
12445;SDS011;6287;50.984;7.022;2022-10-16T14:01:25;0.50;;;0.50;;
12445;SDS011;6287;50.984;7.022;2022-10-16T14:04:05;0.20;;;0.20;;
12445;SDS011;6287;50.984;7.022;2022-10-16T14:06:33;0.45;;;0.30;;
12445;SDS011;6287;50.984;7.022;2022-10-16T14:11:38;0.30;;;0.30;;
12445;SDS011;6287;50.984;7.022;2022-10-16T14:14:18;0.17;;;0.17;;
12445;SDS011;6287;50.984;7.022;2022-10-16T14:16:47;1.17;;;0.30;;
12445;SDS011;6287;50.984;7.022;2022-10-16T14:19:15;0.90;;;0.30;;
12445;SDS011;6287;50.984;7.022;2022-10-16T14:21:43;0.52;;;0.50;;
12445;SDS011;6287;50.984;7.022;2022-10-16T14:24:12;0.20;;;0.20;;
12445;SDS011;6287;50.984;7.022;2022-10-16T14:26:48;0.20;;;0.20;;
12445;SDS011;6287;50.984;7.022;2022-10-16T14:29:18;0.40;;;0.32;;
12445;SDS011;6287;50.984;7.022;2022-10-16T14:31:58;0.50;;;0.25;;
12445;SDS011;6287;50.984;7.022;2022-10-16T14:34:34;0.20;;;0.20;;
12445;SDS011;6287;50.984;7.022;2022-10-16T14:37:22;0.30;;;0.22;;
12445;SDS011;6287;50.984;7.022;2022-10-16T14:39:55;0.40;;;0.40;;
12445;SDS011;6287;50.984;7.022;2022-10-16T14:42:24;0.45;;;0.38;;
12445;SDS011;6287;50.984;7.022;2022-10-16T14:44:53;1.85;;;0.40;;
12445;SDS011;6287;50.984;7.022;2022-10-16T14:47:23;0.20;;;0.20;;
12445;SDS011;6287;50.984;7.022;2022-10-16T14:49:55;0.20;;;0.20;;
12445;SDS011;6287;50.984;7.022;2022-10-16T14:52:23;0.20;;;0.20;;
12445;SDS011;6287;50.984;7.022;2022-10-16T14:54:48;0.65;;;0.30;;
12445;SDS011;6287;50.984;7.022;2022-10-16T14:57:18;0.38;;;0.38;;
12445;SDS011;6287;50.984;7.022;2022-10-16T14:59:46;0.47;;;0.47;;
12445;SDS011;6287;50.984;7.022;2022-10-16T15:02:19;0.90;;;0.40;;
12445;SDS011;6287;50.984;7.022;2022-10-16T15:04:47;0.30;;;0.30;;
12445;SDS011;6287;50.984;7.022;2022-10-16T15:07:13;1.75;;;0.30;;
12445;SDS011;6287;50.984;7.022;2022-10-16T15:09:44;0.20;;;0.20;;
12445;SDS011;6287;50.984;7.022;2022-10-16T15:12:12;0.43;;;0.43;;
12445;SDS011;6287;50.984;7.022;2022-10-16T15:14:40;0.30;;;0.30;;
12445;SDS011;6287;50.984;7.022;2022-10-16T15:17:08;0.55;;;0.45;;
12445;SDS011;6287;50.984;7.022;2022-10-16T15:19:35;0.40;;;0.40;;
12445;SDS011;6287;50.984;7.022;2022-10-16T15:22:01;0.95;;;0.50;;
12445;SDS011;6287;50.984;7.022;2022-10-16T15:24:29;0.60;;;0.60;;
12445;SDS011;6287;50.984;7.022;2022-10-16T15:26:56;1.05;;;0.70;;
12445;SDS011;6287;50.984;7.022;2022-10-16T15:29:22;0.50;;;0.50;;
12445;SDS011;6287;50.984;7.022;2022-10-16T15:31:48;0.82;;;0.65;;
12445;SDS011;6287;50.984;7.022;2022-10-16T15:34:18;0.75;;;0.70;;
12445;SDS011;6287;50.984;7.022;2022-10-16T15:36:46;0.90;;;0.60;;
12445;SDS011;6287;50.984;7.022;2022-10-16T15:39:20;1.15;;;0.57;;
12445;SDS011;6287;50.984;7.022;2022-10-16T15:41:50;0.60;;;0.60;;
12445;SDS011;6287;50.984;7.022;2022-10-16T15:44:18;0.82;;;0.80;;
12445;SDS011;6287;50.984;7.022;2022-10-16T15:46:47;2.40;;;0.80;;
12445;SDS011;6287;50.984;7.022;2022-10-16T15:49:13;0.70;;;0.70;;
12445;SDS011;6287;50.984;7.022;2022-10-16T15:51:41;1.30;;;0.70;;
12445;SDS011;6287;50.984;7.022;2022-10-16T15:54:09;1.30;;;0.80;;
12445;SDS011;6287;50.984;7.022;2022-10-16T15:56:37;1.52;;;0.77;;
12445;SDS011;6287;50.984;7.022;2022-10-16T15:59:05;0.63;;;0.60;;
12445;SDS011;6287;50.984;7.022;2022-10-16T16:01:34;0.65;;;0.50;;
12445;SDS011;6287;50.984;7.022;2022-10-16T16:04:00;1.40;;;1.30;;
12445;SDS011;6287;50.984;7.022;2022-10-16T16:06:25;3.47;;;2.30;;
12445;SDS011;6287;50.984;7.022;2022-10-16T16:08:51;8.60;;;4.97;;
12445;SDS011;6287;50.984;7.022;2022-10-16T16:11:17;4.95;;;3.22;;
12445;SDS011;6287;50.984;7.022;2022-10-16T16:13:44;2.03;;;1.83;;
12445;SDS011;6287;50.984;7.022;2022-10-16T16:16:13;1.55;;;1.15;;
12445;SDS011;6287;50.984;7.022;2022-10-16T16:18:42;2.97;;;1.40;;
12445;SDS011;6287;50.984;7.022;2022-10-16T16:21:11;0.80;;;0.77;;
12445;SDS011;6287;50.984;7.022;2022-10-16T16:23:37;0.88;;;0.85;;
12445;SDS011;6287;50.984;7.022;2022-10-16T16:26:07;1.63;;;0.80;;
12445;SDS011;6287;50.984;7.022;2022-10-16T16:28:41;1.17;;;0.90;;
12445;SDS011;6287;50.984;7.022;2022-10-16T16:31:10;0.40;;;0.40;;
12445;SDS011;6287;50.984;7.022;2022-10-16T16:33:35;0.95;;;0.90;;
12445;SDS011;6287;50.984;7.022;2022-10-16T16:36:02;0.75;;;0.75;;
12445;SDS011;6287;50.984;7.022;2022-10-16T16:38:29;1.13;;;0.90;;
12445;SDS011;6287;50.984;7.022;2022-10-16T16:40:55;0.75;;;0.70;;
12445;SDS011;6287;50.984;7.022;2022-10-16T16:43:24;1.63;;;0.88;;
12445;SDS011;6287;50.984;7.022;2022-10-16T16:45:50;0.68;;;0.68;;
12445;SDS011;6287;50.984;7.022;2022-10-16T16:48:19;0.80;;;0.60;;
12445;SDS011;6287;50.984;7.022;2022-10-16T16:50:45;2.30;;;0.73;;
12445;SDS011;6287;50.984;7.022;2022-10-16T16:53:11;0.90;;;0.90;;
12445;SDS011;6287;50.984;7.022;2022-10-16T16:55:36;0.80;;;0.80;;
12445;SDS011;6287;50.984;7.022;2022-10-16T16:58:02;0.90;;;0.70;;
12445;SDS011;6287;50.984;7.022;2022-10-16T17:00:29;1.10;;;1.00;;
12445;SDS011;6287;50.984;7.022;2022-10-16T17:02:55;2.47;;;0.98;;
12445;SDS011;6287;50.984;7.022;2022-10-16T17:07:57;0.80;;;0.80;;
12445;SDS011;6287;50.984;7.022;2022-10-16T17:10:23;2.13;;;1.00;;
12445;SDS011;6287;50.984;7.022;2022-10-16T17:12:51;3.47;;;0.93;;
12445;SDS011;6287;50.984;7.022;2022-10-16T17:15:16;1.75;;;1.17;;
12445;SDS011;6287;50.984;7.022;2022-10-16T17:17:44;0.95;;;0.80;;
12445;SDS011;6287;50.984;7.022;2022-10-16T17:20:10;1.00;;;0.90;;
12445;SDS011;6287;50.984;7.022;2022-10-16T17:22:35;0.90;;;0.90;;
12445;SDS011;6287;50.984;7.022;2022-10-16T17:25:01;0.88;;;0.85;;
12445;SDS011;6287;50.984;7.022;2022-10-16T17:27:30;0.70;;;0.70;;
12445;SDS011;6287;50.984;7.022;2022-10-16T17:29:56;0.67;;;0.67;;